createdAt,value
2018-09-19T00:00:30.551Z,15.80
2018-09-19T00:02:58.790Z,15.80
2018-09-19T00:05:27.015Z,15.80
2018-09-19T00:07:55.478Z,15.80
2018-09-19T00:10:23.853Z,15.90
2018-09-19T00:12:52.093Z,15.90
2018-09-19T00:15:20.329Z,16.00
2018-09-19T00:17:48.701Z,16.00
2018-09-19T00:20:16.990Z,16.00
2018-09-19T00:22:45.206Z,16.10
2018-09-19T00:25:13.431Z,16.00
2018-09-19T00:27:41.776Z,16.00
2018-09-19T00:30:10.126Z,16.00
2018-09-19T00:32:38.476Z,15.90
2018-09-19T00:35:06.994Z,15.90
2018-09-19T00:37:36.328Z,15.90
2018-09-19T00:40:05.231Z,15.90
2018-09-19T00:42:34.321Z,15.80
2018-09-19T00:45:03.464Z,15.80
2018-09-19T00:47:31.725Z,15.80
2018-09-19T00:49:59.938Z,15.70
2018-09-19T00:52:28.149Z,15.70
2018-09-19T00:54:56.490Z,15.70
2018-09-19T00:57:24.835Z,15.60
2018-09-19T00:59:53.194Z,15.60
2018-09-19T01:02:21.446Z,15.60
2018-09-19T01:04:49.774Z,15.60
2018-09-19T01:07:17.998Z,15.50
2018-09-19T01:09:46.219Z,15.50
2018-09-19T01:15:10.113Z,15.40
2018-09-19T01:17:38.655Z,15.40
2018-09-19T01:20:07.086Z,15.30
2018-09-19T01:22:36.428Z,15.30
2018-09-19T01:25:05.179Z,15.30
2018-09-19T01:27:34.279Z,15.30
2018-09-19T01:30:03.686Z,15.20
2018-09-19T01:32:31.938Z,15.10
2018-09-19T01:35:00.163Z,15.10
2018-09-19T01:37:28.383Z,15.10
2018-09-19T01:39:56.664Z,15.10
2018-09-19T01:42:24.999Z,15.00
2018-09-19T01:44:53.430Z,15.10
2018-09-19T01:47:21.668Z,15.10
2018-09-19T01:49:49.945Z,15.00
2018-09-19T01:52:18.233Z,15.00
2018-09-19T01:54:46.463Z,15.00
2018-09-19T01:57:14.680Z,15.00
2018-09-19T01:59:42.995Z,14.90
2018-09-19T02:02:11.287Z,14.90
2018-09-19T02:04:39.783Z,14.90
2018-09-19T02:07:08.399Z,14.80
2018-09-19T02:09:36.777Z,14.80
2018-09-19T02:12:05.859Z,14.70
2018-09-19T02:14:34.935Z,14.70
2018-09-19T02:17:04.136Z,14.70
2018-09-19T02:19:33.313Z,14.70
2018-09-19T02:22:01.583Z,14.70
2018-09-19T02:24:30.569Z,14.60
2018-09-19T02:26:58.866Z,14.60
2018-09-19T02:29:27.093Z,14.50
2018-09-19T02:31:55.471Z,14.40
2018-09-19T02:34:23.733Z,14.30
2018-09-19T02:36:51.989Z,14.30
2018-09-19T02:39:20.226Z,14.40
2018-09-19T02:41:48.430Z,14.40
2018-09-19T02:44:16.742Z,14.30
2018-09-19T02:46:45.084Z,14.30
2018-09-19T02:49:13.241Z,14.30
2018-09-19T02:51:41.549Z,14.30
2018-09-19T02:54:09.941Z,14.30
2018-09-19T02:56:38.335Z,14.30
2018-09-19T02:59:06.688Z,14.20
2018-09-19T03:01:35.808Z,14.20
2018-09-19T03:04:06.029Z,14.20
2018-09-19T03:06:35.304Z,14.10
2018-09-19T03:09:04.596Z,14.10
2018-09-19T03:11:33.230Z,14.00
2018-09-19T03:14:01.522Z,14.00
2018-09-19T03:16:34.041Z,14.00
2018-09-19T03:19:02.270Z,14.00
2018-09-19T03:21:30.481Z,14.00
2018-09-19T03:23:58.746Z,13.90
2018-09-19T03:26:27.027Z,13.90
2018-09-19T03:28:55.430Z,13.90
2018-09-19T03:31:23.935Z,13.80
2018-09-19T03:33:52.226Z,13.80
2018-09-19T03:36:20.444Z,13.80
2018-09-19T03:38:48.677Z,13.80
2018-09-19T03:41:16.922Z,13.80
2018-09-19T03:43:45.173Z,13.70
2018-09-19T03:46:13.378Z,13.70
2018-09-19T03:48:41.700Z,13.70
2018-09-19T03:51:10.130Z,13.60
2018-09-19T03:53:38.446Z,13.60
2018-09-19T03:56:07.398Z,13.60
2018-09-19T03:58:36.602Z,13.60
2018-09-19T04:01:05.836Z,13.50
2018-09-19T04:03:35.201Z,13.50
2018-09-19T04:06:04.085Z,13.50
2018-09-19T04:08:32.400Z,13.50
2018-09-19T04:11:01.200Z,13.50
2018-09-19T04:13:29.523Z,13.40
2018-09-19T04:15:57.796Z,13.40
2018-09-19T04:18:26.109Z,13.50
2018-09-19T04:20:54.507Z,13.50
2018-09-19T04:23:22.881Z,13.50
2018-09-19T04:25:51.222Z,13.50
2018-09-19T04:28:19.548Z,13.50
2018-09-19T04:30:47.853Z,13.40
2018-09-19T04:33:16.270Z,13.40
2018-09-19T04:35:44.549Z,13.30
2018-09-19T04:38:12.838Z,13.30
2018-09-19T04:40:41.120Z,13.30
2018-09-19T04:43:09.572Z,13.20
2018-09-19T04:45:38.125Z,13.30
2018-09-19T04:48:06.751Z,13.20
2018-09-19T04:50:36.128Z,13.30
2018-09-19T04:53:05.424Z,13.30
2018-09-19T04:55:34.295Z,13.20
2018-09-19T04:58:03.370Z,13.20
2018-09-19T05:00:36.222Z,13.20
2018-09-19T05:03:05.239Z,13.20
2018-09-19T05:05:34.153Z,13.10
2018-09-19T05:08:03.146Z,13.10
2018-09-19T05:10:31.993Z,13.10
2018-09-19T05:13:00.272Z,13.00
2018-09-19T05:15:28.653Z,13.00
2018-09-19T05:17:57.199Z,13.10
2018-09-19T05:20:26.078Z,13.10
2018-09-19T05:22:54.790Z,13.10
2018-09-19T05:25:23.187Z,13.10
2018-09-19T05:27:51.475Z,13.10
2018-09-19T05:30:19.838Z,13.00
2018-09-19T05:32:48.238Z,13.00
2018-09-19T05:35:16.508Z,13.00
2018-09-19T05:37:45.076Z,13.00
2018-09-19T05:40:16.627Z,13.00
2018-09-19T05:42:44.872Z,13.00
2018-09-19T05:45:13.195Z,13.10
2018-09-19T05:47:41.703Z,13.10
2018-09-19T05:50:10.208Z,13.10
2018-09-19T05:52:38.657Z,13.10
2018-09-19T05:55:07.043Z,13.10
2018-09-19T05:57:36.540Z,13.20
2018-09-19T06:00:06.229Z,13.20
2018-09-19T06:02:35.325Z,13.30
2018-09-19T06:05:04.257Z,13.40
2018-09-19T06:07:33.832Z,13.40
2018-09-19T06:10:02.192Z,13.40
2018-09-19T06:12:30.466Z,13.50
2018-09-19T06:14:58.810Z,13.50
2018-09-19T06:17:27.162Z,13.60
2018-09-19T06:19:55.672Z,13.60
2018-09-19T06:22:24.070Z,13.70
2018-09-19T06:24:52.395Z,13.80
2018-09-19T06:27:20.752Z,13.90
2018-09-19T06:29:49.038Z,14.00
2018-09-19T06:32:17.411Z,14.20
2018-09-19T06:34:45.683Z,14.30
2018-09-19T06:37:13.955Z,14.40
2018-09-19T06:39:42.321Z,14.60
2018-09-19T06:42:10.613Z,14.70
2018-09-19T06:44:39.380Z,14.90
2018-09-19T06:47:08.043Z,15.00
2018-09-19T06:49:37.103Z,15.10
2018-09-19T06:52:31.167Z,15.30
2018-09-19T06:54:59.335Z,15.40
2018-09-19T06:57:27.558Z,15.50
2018-09-19T06:59:55.988Z,15.60
2018-09-19T07:02:24.286Z,15.60
2018-09-19T07:04:52.551Z,15.60
2018-09-19T07:07:20.820Z,15.60
2018-09-19T07:09:49.086Z,15.80
2018-09-19T07:12:17.449Z,15.90
2018-09-19T07:14:45.699Z,16.20
2018-09-19T07:17:13.926Z,16.40
2018-09-19T07:19:42.176Z,16.50
2018-09-19T07:22:10.728Z,16.60
2018-09-19T07:24:39.608Z,16.80
2018-09-19T07:27:07.928Z,16.90
2018-09-19T07:29:36.973Z,17.10
2018-09-19T07:32:06.307Z,17.30
2018-09-19T07:34:36.381Z,17.50
2018-09-19T07:37:05.368Z,17.60
2018-09-19T07:39:34.368Z,17.80
2018-09-19T07:42:03.885Z,17.80
2018-09-19T07:44:32.118Z,17.90
2018-09-19T07:47:00.357Z,18.00
2018-09-19T07:49:28.773Z,18.10
2018-09-19T07:51:57.293Z,18.20
2018-09-19T07:54:26.972Z,18.40
2018-09-19T07:56:55.608Z,18.70
2018-09-19T07:59:23.907Z,19.00
2018-09-19T08:01:52.151Z,19.20
2018-09-19T08:04:20.407Z,19.30
2018-09-19T08:06:48.616Z,19.40
2018-09-19T08:09:16.909Z,19.30
2018-09-19T08:11:45.061Z,19.30
2018-09-19T08:14:13.303Z,19.40
2018-09-19T08:16:43.074Z,19.60
2018-09-19T08:19:11.664Z,19.80
2018-09-19T08:21:40.182Z,19.80
2018-09-19T08:24:08.601Z,19.90
2018-09-19T08:26:37.058Z,19.90
2018-09-19T08:29:07.093Z,20.00
2018-09-19T08:31:36.927Z,20.40
2018-09-19T08:34:06.443Z,20.90
2018-09-19T08:36:35.679Z,21.10
2018-09-19T08:39:05.609Z,21.00
2018-09-19T08:41:34.671Z,21.20
2018-09-19T08:44:03.930Z,21.40
2018-09-19T08:46:37.350Z,21.60
2018-09-19T08:49:08.092Z,21.50
2018-09-19T08:51:36.797Z,21.70
2018-09-19T08:54:06.020Z,21.60
2018-09-19T08:56:35.425Z,21.60
2018-09-19T08:59:04.050Z,21.80
2018-09-19T09:01:32.271Z,21.90
2018-09-19T09:04:00.488Z,22.40
2018-09-19T09:06:28.960Z,22.90
2018-09-19T09:08:57.302Z,23.20
2018-09-19T09:11:25.647Z,23.30
2018-09-19T09:13:54.347Z,23.30
2018-09-19T09:16:22.588Z,23.20
2018-09-19T09:18:50.851Z,23.20
2018-09-19T09:21:19.169Z,23.10
2018-09-19T09:23:47.400Z,23.30
2018-09-19T09:26:15.718Z,23.40
2018-09-19T09:28:44.041Z,23.60
2018-09-19T09:31:12.325Z,23.70
2018-09-19T09:33:40.728Z,23.90
2018-09-19T09:36:09.171Z,23.90
2018-09-19T09:38:38.189Z,24.10
2018-09-19T09:41:06.981Z,24.00
2018-09-19T09:43:36.147Z,24.00
2018-09-19T09:46:05.630Z,24.30
2018-09-19T09:48:34.697Z,23.80
2018-09-19T09:51:05.776Z,23.70
2018-09-19T09:53:35.288Z,23.80
2018-09-19T09:56:04.584Z,23.60
2018-09-19T09:58:35.025Z,23.80
2018-09-19T10:01:04.353Z,23.80
2018-09-19T10:03:33.809Z,24.00
2018-09-19T10:06:02.276Z,24.20
2018-09-19T10:08:30.745Z,24.20
2018-09-19T10:10:59.213Z,24.50
2018-09-19T10:13:27.556Z,24.70
2018-09-19T10:15:55.998Z,24.60
2018-09-19T10:18:24.575Z,24.60
2018-09-19T10:20:52.823Z,24.80
2018-09-19T10:23:21.287Z,25.20
2018-09-19T10:25:49.681Z,25.30
2018-09-19T10:28:17.986Z,25.30
2018-09-19T10:34:04.422Z,25.40
2018-09-19T10:36:33.402Z,25.40
2018-09-19T10:39:01.667Z,25.50
2018-09-19T10:41:29.980Z,25.70
2018-09-19T10:43:58.325Z,25.90
2018-09-19T10:46:26.614Z,26.10
2018-09-19T10:48:55.209Z,26.20
2018-09-19T10:51:23.528Z,26.30
2018-09-19T10:53:51.752Z,26.30
2018-09-19T10:56:19.933Z,26.50
2018-09-19T10:58:48.155Z,26.80
2018-09-19T11:01:16.383Z,26.60
2018-09-19T11:03:44.649Z,26.70
2018-09-19T11:06:12.989Z,26.90
2018-09-19T11:08:41.638Z,27.10
2018-09-19T11:11:10.232Z,27.20
2018-09-19T11:13:39.097Z,27.40
2018-09-19T11:16:07.595Z,27.40
2018-09-19T11:18:36.654Z,27.40
2018-09-19T11:21:06.545Z,27.30
2018-09-19T11:23:35.988Z,27.10
2018-09-19T11:26:05.876Z,27.00
2018-09-19T11:28:35.321Z,27.20
2018-09-19T11:31:04.281Z,27.40
2018-09-19T11:33:33.799Z,27.30
2018-09-19T11:36:02.163Z,27.30
2018-09-19T11:38:30.492Z,27.20
2018-09-19T11:40:58.744Z,27.00
2018-09-19T11:43:27.008Z,26.90
2018-09-19T11:45:55.497Z,26.90
2018-09-19T11:48:23.839Z,26.80
2018-09-19T11:50:52.022Z,26.90
2018-09-19T11:53:28.955Z,26.90
2018-09-19T11:55:59.149Z,26.90
2018-09-19T11:58:28.786Z,26.90
2018-09-19T12:00:57.139Z,27.10
2018-09-19T12:03:25.677Z,27.10
2018-09-19T12:05:53.974Z,27.10
2018-09-19T12:08:22.196Z,27.20
2018-09-19T12:10:50.433Z,27.30
2018-09-19T12:13:18.836Z,27.40
2018-09-19T12:15:47.133Z,27.40
2018-09-19T12:18:15.428Z,27.50
2018-09-19T12:20:43.644Z,27.50
2018-09-19T12:23:11.940Z,27.60
2018-09-19T12:25:40.305Z,27.70
2018-09-19T12:28:09.214Z,27.60
2018-09-19T12:30:37.679Z,27.70
2018-09-19T12:33:06.847Z,27.50
2018-09-19T12:35:36.492Z,27.60
2018-09-19T12:38:05.749Z,27.70
2018-09-19T12:40:36.045Z,27.70
2018-09-19T12:43:05.370Z,27.80
2018-09-19T12:45:34.131Z,27.80
2018-09-19T12:48:02.383Z,27.90
2018-09-19T12:50:30.660Z,27.90
2018-09-19T12:52:58.900Z,27.90
2018-09-19T12:55:27.165Z,27.90
2018-09-19T12:57:55.541Z,27.90
2018-09-19T13:00:23.839Z,28.10
2018-09-19T13:02:52.072Z,28.10
2018-09-19T13:05:20.422Z,28.20
2018-09-19T13:07:48.695Z,28.40
2018-09-19T13:10:16.922Z,28.50
2018-09-19T13:12:45.203Z,28.50
2018-09-19T13:15:13.548Z,28.30
2018-09-19T13:17:41.898Z,28.20
2018-09-19T13:20:10.230Z,28.30
2018-09-19T13:22:38.783Z,28.20
2018-09-19T13:25:07.324Z,28.20
2018-09-19T13:27:36.213Z,28.30
2018-09-19T13:30:05.660Z,28.30
2018-09-19T13:32:35.299Z,28.40
2018-09-19T13:35:04.059Z,28.30
2018-09-19T13:37:32.255Z,28.40
2018-09-19T13:40:00.524Z,28.50
2018-09-19T13:42:28.782Z,28.40
2018-09-19T13:44:57.450Z,28.50
2018-09-19T13:47:25.699Z,28.40
2018-09-19T13:50:34.162Z,28.30
2018-09-19T13:53:02.423Z,28.40
2018-09-19T13:55:30.666Z,28.50
2018-09-19T13:57:58.867Z,28.60
2018-09-19T14:00:27.287Z,28.80
2018-09-19T14:02:55.647Z,28.70
2018-09-19T14:05:24.209Z,28.60
2018-09-19T14:07:52.464Z,28.60
2018-09-19T14:10:20.753Z,28.50
2018-09-19T14:12:49.084Z,28.40
2018-09-19T14:15:17.358Z,28.40
2018-09-19T14:17:45.577Z,28.40
2018-09-19T14:20:13.837Z,28.50
2018-09-19T14:22:42.462Z,28.50
2018-09-19T14:25:10.850Z,28.30
2018-09-19T14:27:39.319Z,28.30
2018-09-19T14:30:07.897Z,28.30
2018-09-19T14:32:36.837Z,28.40
2018-09-19T14:35:05.912Z,28.40
2018-09-19T14:37:35.303Z,28.30
2018-09-19T14:40:04.476Z,28.30
2018-09-19T14:42:33.241Z,28.40
2018-09-19T14:45:01.443Z,28.40
2018-09-19T14:47:29.816Z,28.40
2018-09-19T14:49:58.101Z,28.20
2018-09-19T14:52:26.830Z,28.10
2018-09-19T14:54:55.301Z,28.00
2018-09-19T14:57:23.656Z,27.90
2018-09-19T14:59:52.071Z,27.90
2018-09-19T15:02:20.399Z,27.90
2018-09-19T15:04:48.623Z,27.80
2018-09-19T15:07:16.897Z,27.90
2018-09-19T15:09:45.146Z,27.90
2018-09-19T15:12:13.379Z,27.90
2018-09-19T15:14:41.642Z,27.90
2018-09-19T15:17:09.923Z,28.00
2018-09-19T15:19:38.455Z,28.00
2018-09-19T15:22:07.247Z,28.10
2018-09-19T15:24:36.951Z,28.10
2018-09-19T15:27:06.816Z,28.10
2018-09-19T15:29:36.187Z,28.00
2018-09-19T15:32:05.834Z,27.90
2018-09-19T15:34:34.556Z,27.70
2018-09-19T15:37:02.881Z,27.70
2018-09-19T15:39:31.224Z,27.60
2018-09-19T15:44:54.440Z,27.60
2018-09-19T15:47:29.389Z,27.60
2018-09-19T15:50:09.866Z,27.60
2018-09-19T15:52:49.659Z,27.50
2018-09-19T15:56:17.220Z,27.50
2018-09-19T15:58:45.551Z,27.50
2018-09-19T16:01:13.899Z,27.50
2018-09-19T16:03:43.236Z,27.50
2018-09-19T16:06:11.774Z,27.50
2018-09-19T16:08:40.287Z,27.50
2018-09-19T16:11:08.692Z,27.50
2018-09-19T16:13:37.254Z,27.40
2018-09-19T16:16:05.995Z,27.40
2018-09-19T16:18:35.317Z,27.30
2018-09-19T16:21:04.408Z,27.30
2018-09-19T16:23:32.907Z,27.10
2018-09-19T16:26:01.233Z,27.40
2018-09-19T16:28:29.606Z,27.20
2018-09-19T16:31:04.369Z,27.20
2018-09-19T16:33:33.464Z,27.20
2018-09-19T16:36:03.869Z,27.30
2018-09-19T16:38:32.321Z,27.30
2018-09-19T16:41:00.602Z,27.30
2018-09-19T16:43:28.954Z,27.20
2018-09-19T16:45:57.316Z,27.20
2018-09-19T16:48:25.653Z,27.20
2018-09-19T16:50:54.027Z,27.10
2018-09-19T16:53:23.340Z,27.00
2018-09-19T16:55:51.798Z,26.80
2018-09-19T16:58:20.292Z,26.60
2018-09-19T17:00:48.687Z,26.50
2018-09-19T17:03:17.040Z,26.30
2018-09-19T17:05:45.335Z,26.10
2018-09-19T17:08:13.608Z,25.80
2018-09-19T17:10:43.205Z,25.50
2018-09-19T17:13:11.682Z,25.30
2018-09-19T17:15:40.065Z,25.20
2018-09-19T17:18:08.356Z,25.10
2018-09-19T17:20:36.801Z,25.00
2018-09-19T17:23:05.975Z,24.90
2018-09-19T17:25:34.785Z,24.70
2018-09-19T17:28:04.129Z,24.60
2018-09-19T17:30:33.524Z,24.40
2018-09-19T17:33:01.900Z,24.30
2018-09-19T17:35:30.137Z,24.10
2018-09-19T17:37:58.459Z,23.90
2018-09-19T17:40:26.767Z,23.80
2018-09-19T17:42:55.097Z,23.60
2018-09-19T17:45:23.535Z,23.50
2018-09-19T17:47:51.804Z,23.40
2018-09-19T17:50:20.158Z,23.30
2018-09-19T17:52:48.457Z,23.20
2018-09-19T17:55:16.738Z,23.10
2018-09-19T17:57:45.014Z,23.00
2018-09-19T18:00:13.489Z,22.80
2018-09-19T18:02:43.228Z,22.70
2018-09-19T18:05:13.926Z,22.60
2018-09-19T18:07:47.376Z,22.50
2018-09-19T18:10:15.736Z,22.40
2018-09-19T18:12:51.803Z,22.30
2018-09-19T18:15:45.413Z,22.20
2018-09-19T18:18:13.754Z,22.00
2018-09-19T18:20:42.029Z,21.90
2018-09-19T18:23:11.701Z,21.80
2018-09-19T18:25:40.050Z,21.70
2018-09-19T18:28:08.393Z,21.60
2018-09-19T18:30:36.804Z,21.50
2018-09-19T18:33:05.458Z,21.40
2018-09-19T18:35:34.117Z,21.20
2018-09-19T18:38:02.349Z,21.20
2018-09-19T18:40:30.610Z,21.10
2018-09-19T18:42:58.970Z,21.00
2018-09-19T18:45:27.275Z,20.90
2018-09-19T18:47:55.637Z,20.90
2018-09-19T18:50:24.119Z,20.80
2018-09-19T18:52:52.520Z,20.70
2018-09-19T18:55:20.873Z,20.60
2018-09-19T18:57:49.212Z,20.50
2018-09-19T19:00:17.633Z,20.40
2018-09-19T19:02:45.966Z,20.40
2018-09-19T19:05:14.199Z,20.30
2018-09-19T19:07:42.598Z,20.20
2018-09-19T19:10:11.020Z,20.20
2018-09-19T19:12:39.358Z,20.10
2018-09-19T19:15:07.701Z,20.10
2018-09-19T19:17:36.384Z,20.00
2018-09-19T19:20:04.764Z,19.90
2018-09-19T19:22:33.041Z,19.90
2018-09-19T19:25:03.604Z,19.80
2018-09-19T19:27:31.885Z,19.70
2018-09-19T19:32:39.126Z,19.50
2018-09-19T19:35:10.983Z,19.50
2018-09-19T19:37:39.364Z,19.50
2018-09-19T19:40:07.548Z,19.40
2018-09-19T19:42:35.978Z,19.30
2018-09-19T19:45:04.426Z,19.30
2018-09-19T19:47:32.764Z,19.20
2018-09-19T19:50:01.037Z,19.10
2018-09-19T19:52:29.433Z,19.10
2018-09-19T19:54:57.712Z,19.00
2018-09-19T19:57:26.088Z,19.00
2018-09-19T19:59:54.479Z,19.00
2018-09-19T20:02:23.120Z,18.90
2018-09-19T20:04:51.490Z,18.80
2018-09-19T20:07:19.809Z,18.80
2018-09-19T20:09:48.267Z,18.70
2018-09-19T20:12:16.484Z,18.60
2018-09-19T20:14:45.840Z,18.50
2018-09-19T20:17:14.170Z,18.50
2018-09-19T20:19:42.610Z,18.50
2018-09-19T20:22:11.404Z,18.40
2018-09-19T20:24:40.079Z,18.30
2018-09-19T20:27:08.789Z,18.30
2018-09-19T20:29:37.108Z,18.20
2018-09-19T20:32:05.476Z,18.20
2018-09-19T20:34:33.759Z,18.20
2018-09-19T20:37:02.072Z,18.10
2018-09-19T20:39:30.469Z,18.10
2018-09-19T20:41:58.927Z,18.00
2018-09-19T20:44:27.239Z,18.00
2018-09-19T20:46:55.622Z,17.90
2018-09-19T20:49:23.867Z,17.90
2018-09-19T20:51:52.165Z,17.90
2018-09-19T20:54:20.443Z,17.80
2018-09-19T20:56:48.707Z,17.80
2018-09-19T20:59:16.973Z,17.80
2018-09-19T21:01:45.266Z,17.70
2018-09-19T21:04:13.601Z,17.70
2018-09-19T21:06:41.913Z,17.60
2018-09-19T21:09:10.174Z,17.60
2018-09-19T21:11:38.495Z,17.60
2018-09-19T21:14:06.830Z,17.50
2018-09-19T21:16:35.113Z,17.50
2018-09-19T21:19:03.567Z,17.50
2018-09-19T21:21:31.947Z,17.40
2018-09-19T21:24:03.242Z,17.40
2018-09-19T21:26:31.497Z,17.40
2018-09-19T21:28:59.779Z,17.30
2018-09-19T21:31:28.067Z,17.30
2018-09-19T21:33:56.324Z,17.20
2018-09-19T21:36:25.699Z,17.10
2018-09-19T21:38:53.968Z,17.10
2018-09-19T21:41:22.262Z,17.00
2018-09-19T21:43:50.610Z,17.00
2018-09-19T21:46:18.966Z,16.90
2018-09-19T21:48:47.249Z,16.80
2018-09-19T21:51:15.513Z,16.90
2018-09-19T21:53:43.793Z,16.80
2018-09-19T21:56:12.058Z,16.70
2018-09-19T21:58:40.395Z,16.60
2018-09-19T22:01:09.716Z,16.60
2018-09-19T22:03:39.645Z,16.60
2018-09-19T22:06:08.217Z,16.60
2018-09-19T22:08:37.413Z,16.60
2018-09-19T22:11:06.146Z,16.60
2018-09-19T22:13:34.701Z,16.50
2018-09-19T22:16:03.024Z,16.40
2018-09-19T22:18:31.343Z,16.30
2018-09-19T22:20:59.611Z,16.30
2018-09-19T22:23:27.871Z,16.40
2018-09-19T22:25:59.715Z,16.30
2018-09-19T22:28:27.954Z,16.30
2018-09-19T22:30:56.209Z,16.20
2018-09-19T22:33:24.485Z,16.20
2018-09-19T22:35:53.751Z,16.20
2018-09-19T22:38:22.014Z,16.10
2018-09-19T22:40:50.291Z,16.00
2018-09-19T22:43:18.606Z,16.00
2018-09-19T22:45:46.903Z,16.00
2018-09-19T22:48:15.168Z,16.00
2018-09-19T22:50:43.455Z,15.90
2018-09-19T22:53:11.720Z,15.90
2018-09-19T22:55:43.983Z,15.90
2018-09-19T22:58:12.277Z,15.90
2018-09-19T23:00:40.549Z,15.80
2018-09-19T23:03:08.872Z,15.80
2018-09-19T23:05:37.098Z,15.80
2018-09-19T23:08:05.387Z,15.70
2018-09-19T23:10:33.723Z,15.70
2018-09-19T23:13:02.065Z,15.70
2018-09-19T23:15:30.361Z,15.60
2018-09-19T23:17:58.671Z,15.60
2018-09-19T23:20:26.943Z,15.60
2018-09-19T23:22:55.207Z,15.50
2018-09-19T23:25:23.480Z,15.40
2018-09-19T23:27:51.768Z,15.30
2018-09-19T23:30:20.059Z,15.30
2018-09-19T23:32:48.390Z,15.20
2018-09-19T23:35:16.670Z,15.20
2018-09-19T23:37:45.052Z,15.20
2018-09-19T23:40:13.331Z,15.10
2018-09-19T23:42:41.602Z,15.10
2018-09-19T23:45:09.861Z,15.10
2018-09-19T23:47:38.174Z,15.10
2018-09-19T23:50:06.454Z,15.10
2018-09-19T23:52:34.702Z,15.00
2018-09-19T23:55:02.990Z,15.00
2018-09-19T23:57:31.257Z,15.00
2018-09-19T23:59:59.562Z,14.90
